createdAt,value
2022-11-30T00:08:20.045Z,13.73
2022-11-30T00:13:26.156Z,13.68
2022-11-30T00:18:30.283Z,13.05
2022-11-30T00:23:35.416Z,10.18
2022-11-30T00:28:42.103Z,9.63
2022-11-30T00:33:46.324Z,11.65
2022-11-30T00:38:54.403Z,10.20
2022-11-30T00:44:00.076Z,11.55
2022-11-30T00:49:04.061Z,9.27
2022-11-30T00:54:08.528Z,10.88
2022-11-30T00:59:14.320Z,11.40
2022-11-30T01:09:22.315Z,9.18
2022-11-30T01:14:28.072Z,9.43
2022-11-30T01:24:35.841Z,10.65
2022-11-30T01:29:43.336Z,10.85
2022-11-30T01:34:47.561Z,10.20
2022-11-30T01:39:51.947Z,9.85
2022-11-30T01:44:58.452Z,9.43
2022-11-30T01:50:07.575Z,9.00
2022-11-30T01:55:19.244Z,9.38
2022-11-30T02:00:25.400Z,9.25
2022-11-30T02:05:30.199Z,7.50
2022-11-30T02:10:38.425Z,8.17
2022-11-30T02:15:52.454Z,7.55
2022-11-30T02:21:14.603Z,8.25
2022-11-30T02:26:35.309Z,9.07
2022-11-30T02:31:52.303Z,8.20
2022-11-30T02:36:57.701Z,8.80
2022-11-30T02:42:02.162Z,8.52
2022-11-30T02:47:19.481Z,7.82
2022-11-30T02:52:27.421Z,7.93
2022-11-30T02:57:31.670Z,6.72
2022-11-30T03:02:37.914Z,8.40
2022-11-30T03:07:42.315Z,6.18
2022-11-30T03:12:46.355Z,7.32
2022-11-30T03:17:51.927Z,6.55
2022-11-30T03:22:55.959Z,7.72
2022-11-30T03:28:01.791Z,7.95
2022-11-30T03:33:07.162Z,7.32
2022-11-30T03:38:11.340Z,8.38
2022-11-30T03:43:15.375Z,8.35
2022-11-30T03:48:20.968Z,7.00
2022-11-30T03:53:26.468Z,9.25
2022-11-30T03:58:31.270Z,9.13
2022-11-30T04:03:37.306Z,10.20
2022-11-30T04:08:43.531Z,9.60
2022-11-30T04:13:47.601Z,8.50
2022-11-30T04:18:52.999Z,8.98
2022-11-30T04:23:56.996Z,9.77
2022-11-30T04:29:04.266Z,9.15
2022-11-30T04:34:11.049Z,9.10
2022-11-30T04:39:19.120Z,8.90
2022-11-30T04:44:23.678Z,9.40
2022-11-30T04:49:29.811Z,9.53
2022-11-30T04:54:34.460Z,9.07
2022-11-30T04:59:39.107Z,9.38
2022-11-30T05:04:49.401Z,9.55
2022-11-30T05:09:54.019Z,8.35
2022-11-30T05:14:58.184Z,10.20
2022-11-30T05:20:07.086Z,8.35
2022-11-30T05:25:12.383Z,10.13
2022-11-30T05:30:16.876Z,10.32
2022-11-30T05:35:22.459Z,10.77
2022-11-30T05:40:28.258Z,9.90
2022-11-30T05:50:38.069Z,9.23
2022-11-30T05:55:42.083Z,9.55
2022-11-30T06:00:46.501Z,10.32
2022-11-30T06:05:52.937Z,10.10
2022-11-30T06:11:02.030Z,10.85
2022-11-30T06:16:09.514Z,11.73
2022-11-30T06:21:19.594Z,11.65
2022-11-30T06:26:26.927Z,11.48
2022-11-30T06:31:32.287Z,12.25
2022-11-30T06:36:40.287Z,12.75
2022-11-30T06:41:44.419Z,12.50
2022-11-30T06:46:48.501Z,9.80
2022-11-30T06:51:54.773Z,11.68
2022-11-30T06:56:59.115Z,9.90
2022-11-30T07:02:08.803Z,9.07
2022-11-30T07:07:17.232Z,9.63
2022-11-30T07:12:21.870Z,8.98
2022-11-30T07:17:25.954Z,10.50
2022-11-30T07:22:34.470Z,12.88
2022-11-30T07:27:38.640Z,12.00
2022-11-30T07:32:42.644Z,11.85
2022-11-30T07:37:48.284Z,10.85
2022-11-30T07:42:56.370Z,10.23
2022-11-30T07:48:01.702Z,13.18
2022-11-30T07:53:07.275Z,11.52
2022-11-30T07:58:17.141Z,13.50
2022-11-30T08:03:21.716Z,11.80
2022-11-30T08:08:30.479Z,13.88
2022-11-30T08:13:34.786Z,10.88
2022-11-30T08:18:38.840Z,10.95
2022-11-30T08:23:46.039Z,13.80
2022-11-30T08:28:52.610Z,13.57
2022-11-30T08:33:57.763Z,12.02
2022-11-30T08:39:05.448Z,11.98
2022-11-30T08:44:09.687Z,15.20
2022-11-30T08:49:23.099Z,13.00
2022-11-30T08:54:30.047Z,13.25
2022-11-30T08:59:34.392Z,14.70
2022-11-30T09:04:39.089Z,12.40
2022-11-30T09:09:45.194Z,13.63
2022-11-30T09:14:57.405Z,13.80
2022-11-30T09:20:02.830Z,13.43
2022-11-30T09:25:14.899Z,12.63
2022-11-30T09:30:19.376Z,14.48
2022-11-30T09:35:24.194Z,14.02
2022-11-30T09:40:34.187Z,13.43
2022-11-30T09:45:42.688Z,13.05
2022-11-30T09:50:48.804Z,12.63
2022-11-30T10:01:07.260Z,11.15
2022-11-30T10:06:19.578Z,14.30
2022-11-30T10:11:42.514Z,12.65
2022-11-30T10:16:56.803Z,11.65
2022-11-30T10:22:10.392Z,12.80
2022-11-30T10:27:21.810Z,12.00
2022-11-30T10:32:34.560Z,11.40
2022-11-30T10:37:43.114Z,14.65
2022-11-30T10:42:53.556Z,18.17
2022-11-30T10:48:03.573Z,14.25
2022-11-30T10:53:08.025Z,15.75
2022-11-30T10:58:21.074Z,13.95
2022-11-30T11:03:27.133Z,16.88
2022-11-30T11:08:31.353Z,14.60
2022-11-30T11:13:42.257Z,14.40
2022-11-30T11:18:55.079Z,14.40
2022-11-30T11:23:59.961Z,13.50
2022-11-30T11:29:05.641Z,12.67
2022-11-30T11:39:30.890Z,15.75
2022-11-30T11:44:36.294Z,15.50
2022-11-30T11:49:40.483Z,15.57
2022-11-30T11:54:51.170Z,14.88
2022-11-30T12:00:02.826Z,16.77
2022-11-30T12:05:14.839Z,14.32
2022-11-30T12:10:51.931Z,15.82
2022-11-30T12:16:11.362Z,13.82
2022-11-30T12:21:17.138Z,14.90
2022-11-30T12:26:30.930Z,13.60
2022-11-30T12:31:45.575Z,13.55
2022-11-30T12:36:59.858Z,12.20
2022-11-30T12:42:09.073Z,13.45
2022-11-30T12:47:31.141Z,13.95
2022-11-30T12:52:44.718Z,12.73
2022-11-30T12:58:01.142Z,11.80
2022-11-30T13:03:31.876Z,12.27
2022-11-30T13:08:43.858Z,13.23
2022-11-30T13:13:52.138Z,11.25
2022-11-30T13:19:03.067Z,13.30
2022-11-30T13:24:15.452Z,13.15
2022-11-30T13:29:52.379Z,13.65
2022-11-30T13:35:36.367Z,13.48
2022-11-30T13:40:40.486Z,12.20
2022-11-30T13:45:44.664Z,12.43
2022-11-30T13:50:51.256Z,13.37
2022-11-30T13:56:07.763Z,13.10
2022-11-30T14:01:27.633Z,11.20
2022-11-30T14:06:50.125Z,11.63
2022-11-30T14:11:53.998Z,12.18
2022-11-30T14:16:59.663Z,11.15
2022-11-30T14:22:06.232Z,11.10
2022-11-30T14:27:17.585Z,11.05
2022-11-30T14:32:31.339Z,11.02
2022-11-30T14:37:42.491Z,12.57
2022-11-30T14:42:51.933Z,12.70
2022-11-30T14:48:06.755Z,14.27
2022-11-30T14:53:24.710Z,12.43
2022-11-30T14:58:36.851Z,13.02
2022-11-30T15:03:40.992Z,15.45
2022-11-30T15:08:50.085Z,14.43
2022-11-30T15:13:58.301Z,13.77
2022-11-30T15:19:21.424Z,13.95
2022-11-30T15:24:28.371Z,15.45
2022-11-30T15:29:36.813Z,16.73
2022-11-30T15:34:53.611Z,19.45
2022-11-30T15:40:04.080Z,17.73
2022-11-30T15:45:18.496Z,21.73
2022-11-30T15:50:40.490Z,17.77
2022-11-30T15:55:48.034Z,17.52
2022-11-30T16:01:09.345Z,17.15
2022-11-30T16:06:20.450Z,17.10
2022-11-30T16:11:26.018Z,16.10
2022-11-30T16:16:32.802Z,15.73
2022-11-30T16:21:37.159Z,17.15
2022-11-30T16:26:52.703Z,17.67
2022-11-30T16:31:56.888Z,20.27
2022-11-30T16:37:01.054Z,24.88
2022-11-30T16:42:07.153Z,24.83
2022-11-30T16:47:11.176Z,21.90
2022-11-30T16:52:18.191Z,23.80
2022-11-30T16:57:23.979Z,20.40
2022-11-30T17:07:33.910Z,21.52
2022-11-30T17:12:40.459Z,23.90
2022-11-30T17:17:44.877Z,20.10
2022-11-30T17:22:49.016Z,24.02
2022-11-30T17:27:54.594Z,26.70
2022-11-30T17:38:02.782Z,25.67
2022-11-30T17:43:08.473Z,27.05
2022-11-30T17:48:12.642Z,25.95
2022-11-30T17:53:18.276Z,27.02
2022-11-30T18:03:27.572Z,26.83
2022-11-30T18:08:34.379Z,26.58
2022-11-30T18:13:39.941Z,26.52
2022-11-30T18:18:48.183Z,26.85
2022-11-30T18:23:53.216Z,27.75
2022-11-30T18:29:00.677Z,25.80
2022-11-30T18:34:07.112Z,27.13
2022-11-30T18:39:11.185Z,22.75
2022-11-30T18:44:16.832Z,28.30
2022-11-30T18:54:26.676Z,25.53
2022-11-30T18:59:31.914Z,24.42
2022-11-30T19:04:36.147Z,23.25
2022-11-30T19:09:40.179Z,21.17
2022-11-30T19:14:45.911Z,18.73
2022-11-30T19:19:50.302Z,15.13
2022-11-30T19:24:54.404Z,16.02
2022-11-30T19:30:01.043Z,13.65
2022-11-30T19:35:05.945Z,16.63
2022-11-30T19:40:10.689Z,16.25
2022-11-30T19:45:16.176Z,15.35
2022-11-30T19:50:20.383Z,17.85
2022-11-30T19:55:24.521Z,15.60
2022-11-30T20:00:29.944Z,17.50
2022-11-30T20:10:41.238Z,14.50
2022-11-30T20:15:46.601Z,15.77
2022-11-30T20:20:50.566Z,14.77
2022-11-30T20:25:54.628Z,15.18
2022-11-30T20:31:03.503Z,16.98
2022-11-30T20:36:10.411Z,17.10
2022-11-30T20:41:16.771Z,16.10
2022-11-30T20:46:24.251Z,13.23
2022-11-30T20:51:31.763Z,13.45
2022-11-30T20:56:37.523Z,13.10
2022-11-30T21:01:44.396Z,15.15
2022-11-30T21:06:48.775Z,14.05
2022-11-30T21:11:52.735Z,13.20
2022-11-30T21:16:58.016Z,12.95
2022-11-30T21:22:01.757Z,15.77
2022-11-30T21:27:05.697Z,14.40
2022-11-30T21:32:11.121Z,14.32
2022-11-30T21:37:15.085Z,13.07
2022-11-30T21:42:19.113Z,16.52
2022-11-30T21:47:24.353Z,14.05
2022-11-30T21:52:28.310Z,13.60
2022-11-30T21:57:32.391Z,13.50
2022-11-30T22:02:38.936Z,16.13
2022-11-30T22:07:43.049Z,12.77
2022-11-30T22:12:46.871Z,14.57
2022-11-30T22:17:52.716Z,17.48
2022-11-30T22:28:00.570Z,17.45
2022-11-30T22:33:05.853Z,12.55
2022-11-30T22:38:09.728Z,13.15
2022-11-30T22:43:13.975Z,12.55
2022-11-30T22:48:19.110Z,13.90
2022-11-30T22:53:22.905Z,13.68
2022-11-30T22:58:26.775Z,13.38
2022-11-30T23:03:32.047Z,14.05
2022-11-30T23:08:36.655Z,12.90
2022-11-30T23:13:41.475Z,13.90
2022-11-30T23:18:48.915Z,13.77
2022-11-30T23:23:53.020Z,12.13
2022-11-30T23:28:59.735Z,12.40
2022-11-30T23:34:08.150Z,13.27
2022-11-30T23:39:14.004Z,14.52
2022-11-30T23:44:17.971Z,14.13
2022-11-30T23:49:23.265Z,16.13
2022-11-30T23:54:27.113Z,13.45
2022-11-30T23:59:30.847Z,13.25
